Stations météo

Publicité
Dunstaffnage, Grande-Bretagne (99006): Température de l'air & dewpoint: 14.08.2019 13:00:00 - 20.08.2019 13:00:00 (BST)Dunstaffnage, Grande-Bretagne (99006): Température de l'air -20cm: 14.08.2019 13:00:00 - 20.08.2019 13:00:00 (BST)Dunstaffnage, Grande-Bretagne (99006): Vitesse du vent & gusts: 14.08.2019 13:00:00 - 20.08.2019 13:00:00 (BST)Dunstaffnage, Grande-Bretagne (99006): Direction du vent: 14.08.2019 13:00:00 - 20.08.2019 13:00:00 (BST)Dunstaffnage, Grande-Bretagne (99006): Quantités de précipitations: 14.08.2019 13:00:00 - 20.08.2019 13:00:00 (BST)
Date & Time tt [°C] td [°C] tt -20cm [°C] ff [km/h] ff [knt] fx [km/h] fx [knt] dd rr [mm]
20.08.2019 13:00:00 16,6 11,9 - 15 8 - - SW 0,0
20.08.2019 12:00:00 16,1 12,2 - 15 8 - - WSW 0,0
20.08.2019 11:00:00 14,6 12,1 - 13 7 - - SW 0,0
20.08.2019 10:00:00 13,8 11,6 15,4 9 5 - - SW 0,0
20.08.2019 09:00:00 13,5 12,5 - 5 3 - - SW 0,0
20.08.2019 08:00:00 11,7 11,1 - 4 2 - - SSW 0,0
20.08.2019 07:00:00 10,4 9,8 - 5 3 - - SW 0,0
20.08.2019 06:00:00 10,4 9,4 - 5 3 - - SSW 0,0
20.08.2019 05:00:00 11,2 10,2 - 8 4 - - SW 0,0
20.08.2019 04:00:00 11,3 9,9 - 5 3 - - SW 0,2
20.08.2019 03:00:00 12,4 11,0 - 16 9 - - W 0,0
20.08.2019 02:00:00 12,2 10,9 - 11 6 - - W 0,0
20.08.2019 01:00:00 12,3 10,9 - 11 6 - - W 0,0
20.08.2019 00:00:00 12,4 11,3 - 18 10 - - W 0,0
19.08.2019 23:00:00 12,6 11,1 - 16 9 - - W 0,0
19.08.2019 22:00:00 12,9 11,4 - 15 8 - - W 0,0
19.08.2019 21:00:00 13,1 11,4 - 13 7 - - W 0,0
19.08.2019 20:00:00 13,5 12,3 - 13 7 - - W 0,0
19.08.2019 19:00:00 12,9 11,9 - 13 7 - - WNW 4,4
19.08.2019 18:00:00 13,5 12,7 - 15 8 - - SW 2,2
19.08.2019 17:00:00 13,8 11,8 - 21 11 - - SW 0,0
19.08.2019 16:00:00 15,2 11,5 - 22 12 - - SW 0,0
19.08.2019 15:00:00 15,6 12,0 - 18 10 - - WSW 0,0
19.08.2019 14:00:00 14,6 10,7 - 28 15 - - WSW 0,0
19.08.2019 13:00:00 15,3 12,3 - 15 8 - - WSW 0,0
19.08.2019 12:00:00 14,7 12,0 - 13 7 - - SW 0,2
19.08.2019 11:00:00 14,6 11,5 - 22 12 - - WSW 0,0
19.08.2019 10:00:00 13,8 12,2 15,7 18 10 - - WSW 0,0
19.08.2019 09:00:00 12,3 11,7 - 5 3 - - SSW 1,0
19.08.2019 08:00:00 12,1 11,1 - 13 7 - - WSW 0,2
19.08.2019 07:00:00 11,9 11,1 - 9 5 46 25 SW 0,6
19.08.2019 06:00:00 12,2 11,7 - 29 16 48 26 W 2,6
19.08.2019 05:00:00 12,5 12,2 - 9 5 - - SW 0,6
19.08.2019 04:00:00 12,1 11,7 - 5 3 - - SSW 1,6
19.08.2019 03:00:00 12,4 12,0 - 9 5 - - SW 0,4
19.08.2019 02:00:00 12,3 11,9 - 4 2 - - S 0,0
19.08.2019 01:00:00 12,4 11,9 - 0 0 - - N 0,0
19.08.2019 00:00:00 12,3 11,7 - 4 2 - - SSW 0,0
18.08.2019 23:00:00 12,6 11,8 - 8 4 - - SW 1,8
18.08.2019 22:00:00 13,2 11,8 - 8 4 - - SW 0,0
18.08.2019 21:00:00 13,2 10,7 - 5 3 - - SSW 0,0
18.08.2019 20:00:00 14,2 11,3 - 15 8 - - WSW 0,0
18.08.2019 19:00:00 14,4 12,2 - 16 9 - - W 0,2
18.08.2019 18:00:00 15,1 12,1 - 21 11 - - W 0,0
18.08.2019 17:00:00 14,9 12,6 - 21 11 - - WSW 0,0
18.08.2019 16:00:00 14,3 12,5 - 28 15 - - W 0,2
18.08.2019 15:00:00 14,5 13,2 - 21 11 - - WSW 1,0
18.08.2019 14:00:00 16,4 14,5 - 18 10 - - SW 0,6
18.08.2019 13:00:00 14,3 12,5 - 22 12 - - WSW 0,2
18.08.2019 12:00:00 15,9 13,7 - 21 11 - - WSW 0,0
18.08.2019 11:00:00 15,0 14,2 - 16 9 - - SW 5,4
18.08.2019 10:00:00 14,2 13,0 15,7 18 10 - - SW 0,0
18.08.2019 09:00:00 13,0 12,1 - 18 10 - - SSW 2,6
18.08.2019 08:00:00 13,2 11,6 - 18 10 - - S 0,0
18.08.2019 07:00:00 12,8 11,6 - 21 11 - - S 0,0
18.08.2019 06:00:00 12,5 11,3 - 13 7 - - SSW 0,0
18.08.2019 05:00:00 12,7 11,9 - 21 11 - - S 3,8
18.08.2019 04:00:00 12,7 11,7 - 16 9 - - S 0,6
18.08.2019 03:00:00 12,7 11,7 - 18 10 48 26 S 0,6
18.08.2019 02:00:00 12,3 11,4 - 22 12 46 25 S 2,2
18.08.2019 01:00:00 12,6 11,2 - 21 11 46 25 S 1,4
18.08.2019 00:00:00 12,7 10,9 - 21 11 - - S 0,2
17.08.2019 23:00:00 12,8 11,4 - 21 11 - - S 0,4
17.08.2019 22:00:00 12,3 11,2 - 13 7 - - S 2,4
17.08.2019 21:00:00 13,1 11,2 - 15 8 - - S 0,8
17.08.2019 20:00:00 14,1 10,5 - 15 8 - - SSE 0,0
17.08.2019 19:00:00 14,1 11,1 - 18 10 - - S 0,0
17.08.2019 18:00:00 13,3 11,6 - 9 5 - - S 1,2
17.08.2019 17:00:00 14,4 10,7 - 16 9 - - SW 0,2
17.08.2019 16:00:00 16,8 10,6 - 22 12 - - SSW 0,0
17.08.2019 15:00:00 17,1 10,5 - 21 11 - - S 0,0
17.08.2019 14:00:00 16,4 10,3 - 22 12 - - SSW 0,0
17.08.2019 13:00:00 16,2 10,2 - 24 13 48 26 SW 0,0
17.08.2019 12:00:00 15,1 11,4 - 22 12 - - SW 0,0
17.08.2019 11:00:00 12,0 10,3 - 13 7 - - SSW 3,8
17.08.2019 10:00:00 11,5 8,6 16,0 21 11 46 25 SW 0,2
17.08.2019 09:00:00 13,0 11,1 - 9 5 - - SSW 0,0
17.08.2019 08:00:00 12,5 11,4 - 9 5 - - S 0,0
17.08.2019 07:00:00 10,9 9,1 - 8 4 - - SW 0,8
17.08.2019 06:00:00 12,2 10,3 - 15 8 - - SW 0,0
17.08.2019 05:00:00 12,4 11,1 - 18 10 - - WSW 0,2
17.08.2019 04:00:00 12,9 11,5 - 15 8 - - SW 0,4
17.08.2019 03:00:00 13,5 12,7 - 21 11 - - SW 3,0
17.08.2019 02:00:00 13,1 12,4 - 15 8 - - SE 0,0
17.08.2019 01:00:00 13,3 12,5 - 8 4 - - S 1,4
17.08.2019 00:00:00 14,0 13,3 - 5 3 - - S 2,6
16.08.2019 23:00:00 13,7 12,6 - 0 0 - - N 0,0
16.08.2019 22:00:00 14,4 13,1 - 5 3 - - SW 0,4
16.08.2019 21:00:00 15,4 13,2 - 5 3 - - SW 0,0
16.08.2019 20:00:00 15,9 13,1 - 4 2 - - SSW 0,0
16.08.2019 19:00:00 16,5 13,0 - 9 5 - - SW 0,0
16.08.2019 18:00:00 17,3 13,1 - 13 7 - - W 0,0
16.08.2019 17:00:00 16,9 13,4 - 8 4 - - SSW 0,0
16.08.2019 16:00:00 17,1 13,0 - 16 9 - - SW 0,0
16.08.2019 15:00:00 17,5 14,7 - 15 8 - - SW 0,0
16.08.2019 14:00:00 17,0 16,0 - 18 10 - - WSW 2,0
16.08.2019 13:00:00 16,7 14,5 - 18 10 - - S 0,0
16.08.2019 12:00:00 15,9 14,3 - 26 14 - - S 0,2
16.08.2019 11:00:00 15,1 14,0 - 22 12 - - S 0,2
16.08.2019 10:00:00 14,9 13,7 16,2 21 11 - - S 0,4
16.08.2019 09:00:00 14,4 13,5 - 8 4 - - SSE 0,6
16.08.2019 08:00:00 14,1 12,9 - 18 10 - - S 1,4
16.08.2019 07:00:00 14,4 12,9 - 18 10 - - S 0,8
16.08.2019 06:00:00 14,0 13,1 - 9 5 - - SSE 1,0
16.08.2019 05:00:00 13,8 12,8 - 11 6 - - S 1,2
16.08.2019 04:00:00 13,9 12,9 - 9 5 - - SSE 0,8
16.08.2019 03:00:00 14,6 13,3 - 16 9 - - S 0,2
16.08.2019 02:00:00 14,2 13,5 - 9 5 - - SE 0,2
16.08.2019 01:00:00 13,9 13,2 - 15 8 - - SSE 0,2
16.08.2019 00:00:00 13,6 12,7 - 11 6 - - SE 0,2
15.08.2019 23:00:00 13,9 13,0 - 11 6 - - S 0,2
15.08.2019 22:00:00 13,1 12,5 - 13 7 - - S 0,4
15.08.2019 21:00:00 12,4 11,7 - 5 3 - - ESE 0,6
15.08.2019 20:00:00 12,5 11,6 - 5 3 - - E 0,4
15.08.2019 19:00:00 12,5 10,9 - 5 3 - - SE 0,4
15.08.2019 18:00:00 14,3 9,5 - 15 8 - - SW 0,0
15.08.2019 17:00:00 15,8 9,0 - 18 10 - - SSW 0,0
15.08.2019 16:00:00 17,4 10,5 - 16 9 - - W 0,0
15.08.2019 15:00:00 16,7 9,8 - 16 9 - - W 0,0
15.08.2019 14:00:00 16,0 8,6 - 24 13 - - W 0,0
15.08.2019 13:00:00 17,4 12,0 - 26 14 - - W 0,0
15.08.2019 12:00:00 13,6 9,0 - 29 16 50 27 W 0,0
15.08.2019 11:00:00 15,1 8,3 - 26 14 - - WNW 0,0
15.08.2019 10:00:00 13,5 8,9 16,0 29 16 - - WNW 0,0
15.08.2019 09:00:00 12,5 10,0 - 28 15 46 25 WNW 0,0
15.08.2019 08:00:00 12,6 10,6 - 26 14 - - W 0,0
15.08.2019 07:00:00 13,2 10,8 - 29 16 54 29 WNW 0,0
15.08.2019 06:00:00 13,2 11,8 - 29 16 48 26 W 0,2
15.08.2019 05:00:00 13,7 13,2 - 22 12 - - WSW 0,2
15.08.2019 04:00:00 13,4 12,8 - 9 5 - - SW 0,0
15.08.2019 03:00:00 13,7 13,2 - 9 5 - - SW 0,0
15.08.2019 02:00:00 13,8 13,1 - 4 2 - - SSW 0,6
15.08.2019 01:00:00 13,8 13,1 - 4 2 - - SSW 0,0
15.08.2019 00:00:00 14,0 13,2 - 2 1 - - S 0,0
14.08.2019 23:00:00 13,9 13,2 - 8 4 - - SSW 0,2
14.08.2019 22:00:00 14,3 13,6 - 9 5 - - SSW 1,2
14.08.2019 21:00:00 14,1 13,3 - 5 3 - - E 2,6
14.08.2019 20:00:00 14,7 12,9 - 15 8 - - ESE 0,2
14.08.2019 19:00:00 15,0 12,6 - 18 10 - - ESE 0,0
14.08.2019 18:00:00 15,6 12,1 - 18 10 - - E 0,0
14.08.2019 17:00:00 16,2 12,2 - 15 8 - - E 0,0
14.08.2019 16:00:00 16,6 11,5 - 18 10 - - ESE 0,0
14.08.2019 15:00:00 17,2 12,3 - 21 11 - - E 0,0
14.08.2019 14:00:00 17,3 12,3 - 22 12 - - E 0,0
14.08.2019 13:00:00 15,4 12,2 - 16 9 - - ESE 0,0

tt = Température de l'air
td = dewpoint
tt -20cm = Température de l'air -20cm
ff = Vitesse du vent
fx = gusts
dd = Direction du vent
rr = Quantités de précipitations

stations d'obs. à proximité